sensor_id;sensor_type;location;lat;lon;timestamp;temperature;humidity
52947;DHT22;68773;40.400;17.260;2023-04-25T00:01:04;16.50;85.30
52947;DHT22;68773;40.400;17.260;2023-04-25T00:03:31;16.50;85.30
52947;DHT22;68773;40.400;17.260;2023-04-25T00:05:58;16.50;85.00
52947;DHT22;68773;40.400;17.260;2023-04-25T00:08:28;16.50;85.60
52947;DHT22;68773;40.400;17.260;2023-04-25T00:10:54;16.50;84.20
52947;DHT22;68773;40.400;17.260;2023-04-25T00:13:20;16.50;85.10
52947;DHT22;68773;40.400;17.260;2023-04-25T00:15:46;16.40;85.20
52947;DHT22;68773;40.400;17.260;2023-04-25T00:18:14;16.40;87.60
52947;DHT22;68773;40.400;17.260;2023-04-25T00:20:40;16.60;88.10
52947;DHT22;68773;40.400;17.260;2023-04-25T00:23:21;16.60;87.40
52947;DHT22;68773;40.400;17.260;2023-04-25T00:25:49;16.50;85.80
52947;DHT22;68773;40.400;17.260;2023-04-25T00:28:15;16.30;85.00
52947;DHT22;68773;40.400;17.260;2023-04-25T00:30:41;16.30;84.70
52947;DHT22;68773;40.400;17.260;2023-04-25T00:33:08;16.30;85.20
52947;DHT22;68773;40.400;17.260;2023-04-25T00:35:34;16.30;84.80
52947;DHT22;68773;40.400;17.260;2023-04-25T00:38:00;16.20;85.10
52947;DHT22;68773;40.400;17.260;2023-04-25T00:40:27;16.20;84.90
52947;DHT22;68773;40.400;17.260;2023-04-25T00:42:53;16.00;85.50
52947;DHT22;68773;40.400;17.260;2023-04-25T00:45:19;16.10;85.40
52947;DHT22;68773;40.400;17.260;2023-04-25T00:47:45;16.00;85.40
52947;DHT22;68773;40.400;17.260;2023-04-25T00:50:12;16.10;85.00
52947;DHT22;68773;40.400;17.260;2023-04-25T00:52:43;16.20;84.90
52947;DHT22;68773;40.400;17.260;2023-04-25T00:55:10;16.30;84.50
52947;DHT22;68773;40.400;17.260;2023-04-25T00:57:36;16.20;85.20
52947;DHT22;68773;40.400;17.260;2023-04-25T01:00:06;16.20;85.80
52947;DHT22;68773;40.400;17.260;2023-04-25T01:02:33;16.10;86.00
52947;DHT22;68773;40.400;17.260;2023-04-25T01:05:01;16.10;85.50
52947;DHT22;68773;40.400;17.260;2023-04-25T01:07:27;15.90;85.70
52947;DHT22;68773;40.400;17.260;2023-04-25T01:09:53;16.10;85.20
52947;DHT22;68773;40.400;17.260;2023-04-25T01:12:19;15.90;86.50
52947;DHT22;68773;40.400;17.260;2023-04-25T01:14:46;16.00;86.80
52947;DHT22;68773;40.400;17.260;2023-04-25T01:17:12;15.80;87.30
52947;DHT22;68773;40.400;17.260;2023-04-25T01:19:38;15.90;86.80
52947;DHT22;68773;40.400;17.260;2023-04-25T01:22:04;15.90;85.80
52947;DHT22;68773;40.400;17.260;2023-04-25T01:24:33;15.90;85.80
52947;DHT22;68773;40.400;17.260;2023-04-25T01:27:00;15.90;85.70
52947;DHT22;68773;40.400;17.260;2023-04-25T01:29:27;16.00;85.00
52947;DHT22;68773;40.400;17.260;2023-04-25T01:31:53;16.00;84.70
52947;DHT22;68773;40.400;17.260;2023-04-25T01:34:20;15.90;85.70
52947;DHT22;68773;40.400;17.260;2023-04-25T01:36:49;16.00;86.40
52947;DHT22;68773;40.400;17.260;2023-04-25T01:39:15;16.00;85.80
52947;DHT22;68773;40.400;17.260;2023-04-25T01:41:41;15.80;85.30
52947;DHT22;68773;40.400;17.260;2023-04-25T01:44:07;16.00;84.80
52947;DHT22;68773;40.400;17.260;2023-04-25T01:46:34;16.10;84.40
52947;DHT22;68773;40.400;17.260;2023-04-25T01:49:00;15.90;84.10
52947;DHT22;68773;40.400;17.260;2023-04-25T01:51:26;15.90;84.10
52947;DHT22;68773;40.400;17.260;2023-04-25T01:53:52;15.90;82.80
52947;DHT22;68773;40.400;17.260;2023-04-25T01:56:18;15.90;83.20
52947;DHT22;68773;40.400;17.260;2023-04-25T01:58:44;15.90;82.70
52947;DHT22;68773;40.400;17.260;2023-04-25T02:01:10;15.90;82.70
52947;DHT22;68773;40.400;17.260;2023-04-25T02:03:36;15.80;82.10
52947;DHT22;68773;40.400;17.260;2023-04-25T02:06:02;15.70;82.30
52947;DHT22;68773;40.400;17.260;2023-04-25T02:08:28;15.90;82.50
52947;DHT22;68773;40.400;17.260;2023-04-25T02:10:53;15.80;82.40
52947;DHT22;68773;40.400;17.260;2023-04-25T02:13:19;15.80;82.60
52947;DHT22;68773;40.400;17.260;2023-04-25T02:15:45;15.90;82.00
52947;DHT22;68773;40.400;17.260;2023-04-25T02:18:10;15.90;80.80
52947;DHT22;68773;40.400;17.260;2023-04-25T02:20:36;16.00;80.70
52947;DHT22;68773;40.400;17.260;2023-04-25T02:23:03;16.10;81.10
52947;DHT22;68773;40.400;17.260;2023-04-25T02:25:29;15.90;81.00
52947;DHT22;68773;40.400;17.260;2023-04-25T02:27:54;16.00;81.40
52947;DHT22;68773;40.400;17.260;2023-04-25T02:30:20;16.00;81.70
52947;DHT22;68773;40.400;17.260;2023-04-25T02:32:46;15.80;82.00
52947;DHT22;68773;40.400;17.260;2023-04-25T02:35:12;15.90;81.00
52947;DHT22;68773;40.400;17.260;2023-04-25T02:37:39;15.90;80.50
52947;DHT22;68773;40.400;17.260;2023-04-25T02:40:05;15.80;81.60
52947;DHT22;68773;40.400;17.260;2023-04-25T02:42:32;15.80;81.20
52947;DHT22;68773;40.400;17.260;2023-04-25T02:44:58;15.80;81.30
52947;DHT22;68773;40.400;17.260;2023-04-25T02:47:24;15.70;80.00
52947;DHT22;68773;40.400;17.260;2023-04-25T02:49:49;15.70;79.60
52947;DHT22;68773;40.400;17.260;2023-04-25T02:52:15;15.80;80.10
52947;DHT22;68773;40.400;17.260;2023-04-25T02:54:41;15.70;80.00
52947;DHT22;68773;40.400;17.260;2023-04-25T02:57:07;15.80;79.70
52947;DHT22;68773;40.400;17.260;2023-04-25T02:59:33;15.70;80.10
52947;DHT22;68773;40.400;17.260;2023-04-25T03:01:58;15.80;80.10
52947;DHT22;68773;40.400;17.260;2023-04-25T03:04:24;15.70;80.40
52947;DHT22;68773;40.400;17.260;2023-04-25T03:06:50;15.70;80.70
52947;DHT22;68773;40.400;17.260;2023-04-25T03:09:16;15.70;81.10
52947;DHT22;68773;40.400;17.260;2023-04-25T03:11:43;15.60;81.40
52947;DHT22;68773;40.400;17.260;2023-04-25T03:14:09;15.70;80.70
52947;DHT22;68773;40.400;17.260;2023-04-25T03:16:35;15.70;80.80
52947;DHT22;68773;40.400;17.260;2023-04-25T03:19:01;15.70;81.30
52947;DHT22;68773;40.400;17.260;2023-04-25T03:21:27;15.80;81.20
52947;DHT22;68773;40.400;17.260;2023-04-25T03:23:53;15.80;80.40
52947;DHT22;68773;40.400;17.260;2023-04-25T03:26:19;15.80;80.40
52947;DHT22;68773;40.400;17.260;2023-04-25T03:28:45;16.20;79.80
52947;DHT22;68773;40.400;17.260;2023-04-25T03:31:10;15.90;80.60
52947;DHT22;68773;40.400;17.260;2023-04-25T03:33:36;16.00;80.40
52947;DHT22;68773;40.400;17.260;2023-04-25T03:36:02;15.90;80.70
52947;DHT22;68773;40.400;17.260;2023-04-25T03:38:28;15.60;81.20
52947;DHT22;68773;40.400;17.260;2023-04-25T03:40:54;15.70;81.90
52947;DHT22;68773;40.400;17.260;2023-04-25T03:43:19;15.80;80.90
52947;DHT22;68773;40.400;17.260;2023-04-25T03:45:45;15.70;80.60
52947;DHT22;68773;40.400;17.260;2023-04-25T03:48:11;15.90;79.30
52947;DHT22;68773;40.400;17.260;2023-04-25T03:50:37;15.70;78.40
52947;DHT22;68773;40.400;17.260;2023-04-25T03:53:03;15.60;79.00
52947;DHT22;68773;40.400;17.260;2023-04-25T03:55:28;15.70;79.50
52947;DHT22;68773;40.400;17.260;2023-04-25T03:57:54;15.70;79.70
52947;DHT22;68773;40.400;17.260;2023-04-25T04:00:20;15.70;79.10
52947;DHT22;68773;40.400;17.260;2023-04-25T04:02:46;15.80;78.40
52947;DHT22;68773;40.400;17.260;2023-04-25T04:05:11;15.70;78.80
52947;DHT22;68773;40.400;17.260;2023-04-25T04:07:37;15.70;78.50
52947;DHT22;68773;40.400;17.260;2023-04-25T04:10:07;15.70;78.60
52947;DHT22;68773;40.400;17.260;2023-04-25T04:12:33;15.60;79.00
52947;DHT22;68773;40.400;17.260;2023-04-25T04:14:59;15.70;79.50
52947;DHT22;68773;40.400;17.260;2023-04-25T04:17:25;15.70;79.30
52947;DHT22;68773;40.400;17.260;2023-04-25T04:19:50;15.60;79.80
52947;DHT22;68773;40.400;17.260;2023-04-25T04:22:16;15.60;80.00
52947;DHT22;68773;40.400;17.260;2023-04-25T04:24:42;15.70;80.90
52947;DHT22;68773;40.400;17.260;2023-04-25T04:27:12;15.60;80.40
52947;DHT22;68773;40.400;17.260;2023-04-25T04:29:38;15.70;80.60
52947;DHT22;68773;40.400;17.260;2023-04-25T04:32:04;15.60;80.70
52947;DHT22;68773;40.400;17.260;2023-04-25T04:34:30;15.30;81.90
52947;DHT22;68773;40.400;17.260;2023-04-25T04:36:57;15.00;82.60
52947;DHT22;68773;40.400;17.260;2023-04-25T04:39:22;15.10;82.60
52947;DHT22;68773;40.400;17.260;2023-04-25T04:41:48;15.00;82.00
52947;DHT22;68773;40.400;17.260;2023-04-25T04:44:14;15.20;83.40
52947;DHT22;68773;40.400;17.260;2023-04-25T04:46:40;15.40;83.70
52947;DHT22;68773;40.400;17.260;2023-04-25T04:49:10;15.40;81.60
52947;DHT22;68773;40.400;17.260;2023-04-25T04:51:37;15.50;83.00
52947;DHT22;68773;40.400;17.260;2023-04-25T04:54:03;15.60;84.60
52947;DHT22;68773;40.400;17.260;2023-04-25T04:56:30;15.50;82.80
52947;DHT22;68773;40.400;17.260;2023-04-25T04:58:57;15.20;83.40
52947;DHT22;68773;40.400;17.260;2023-04-25T05:01:23;14.80;84.30
52947;DHT22;68773;40.400;17.260;2023-04-25T05:03:48;14.60;85.10
52947;DHT22;68773;40.400;17.260;2023-04-25T05:06:16;14.40;86.10
52947;DHT22;68773;40.400;17.260;2023-04-25T05:08:41;14.20;86.70
52947;DHT22;68773;40.400;17.260;2023-04-25T05:11:07;14.30;87.20
52947;DHT22;68773;40.400;17.260;2023-04-25T05:13:33;14.40;87.10
52947;DHT22;68773;40.400;17.260;2023-04-25T05:15:59;14.50;86.70
52947;DHT22;68773;40.400;17.260;2023-04-25T05:18:24;14.60;86.40
52947;DHT22;68773;40.400;17.260;2023-04-25T05:20:50;14.60;86.40
52947;DHT22;68773;40.400;17.260;2023-04-25T05:23:16;14.60;86.80
52947;DHT22;68773;40.400;17.260;2023-04-25T05:25:42;14.60;86.70
52947;DHT22;68773;40.400;17.260;2023-04-25T05:28:07;14.90;86.30
52947;DHT22;68773;40.400;17.260;2023-04-25T05:30:34;14.90;86.20
52947;DHT22;68773;40.400;17.260;2023-04-25T05:33:00;14.90;86.50
52947;DHT22;68773;40.400;17.260;2023-04-25T05:35:26;15.10;85.70
52947;DHT22;68773;40.400;17.260;2023-04-25T05:37:51;15.00;84.90
52947;DHT22;68773;40.400;17.260;2023-04-25T05:40:17;15.10;85.00
52947;DHT22;68773;40.400;17.260;2023-04-25T05:42:43;15.00;84.40
52947;DHT22;68773;40.400;17.260;2023-04-25T05:45:09;15.20;84.60
52947;DHT22;68773;40.400;17.260;2023-04-25T05:47:35;15.20;84.70
52947;DHT22;68773;40.400;17.260;2023-04-25T05:50:00;15.30;84.60
52947;DHT22;68773;40.400;17.260;2023-04-25T05:52:26;15.30;84.00
52947;DHT22;68773;40.400;17.260;2023-04-25T05:54:52;15.20;85.00
52947;DHT22;68773;40.400;17.260;2023-04-25T05:57:20;15.10;85.80
52947;DHT22;68773;40.400;17.260;2023-04-25T05:59:46;15.00;86.00
52947;DHT22;68773;40.400;17.260;2023-04-25T06:02:12;14.90;86.40
52947;DHT22;68773;40.400;17.260;2023-04-25T06:04:37;15.00;87.30
52947;DHT22;68773;40.400;17.260;2023-04-25T06:07:03;14.80;87.50
52947;DHT22;68773;40.400;17.260;2023-04-25T06:09:29;15.00;88.00
52947;DHT22;68773;40.400;17.260;2023-04-25T06:11:55;15.10;88.00
52947;DHT22;68773;40.400;17.260;2023-04-25T06:14:20;15.10;88.20
52947;DHT22;68773;40.400;17.260;2023-04-25T06:16:46;15.40;88.70
52947;DHT22;68773;40.400;17.260;2023-04-25T06:19:12;15.60;87.40
52947;DHT22;68773;40.400;17.260;2023-04-25T06:21:37;15.50;85.20
52947;DHT22;68773;40.400;17.260;2023-04-25T06:24:03;15.80;84.70
52947;DHT22;68773;40.400;17.260;2023-04-25T06:26:29;15.90;83.90
52947;DHT22;68773;40.400;17.260;2023-04-25T06:28:55;16.10;83.90
52947;DHT22;68773;40.400;17.260;2023-04-25T06:31:21;16.10;81.90
52947;DHT22;68773;40.400;17.260;2023-04-25T06:33:46;16.40;81.50
52947;DHT22;68773;40.400;17.260;2023-04-25T06:36:13;16.30;81.30
52947;DHT22;68773;40.400;17.260;2023-04-25T06:38:39;16.30;82.20
52947;DHT22;68773;40.400;17.260;2023-04-25T06:41:05;16.20;82.40
52947;DHT22;68773;40.400;17.260;2023-04-25T06:43:31;16.20;82.60
52947;DHT22;68773;40.400;17.260;2023-04-25T06:45:59;16.20;82.90
52947;DHT22;68773;40.400;17.260;2023-04-25T06:48:27;16.30;82.60
52947;DHT22;68773;40.400;17.260;2023-04-25T06:50:52;16.60;82.30
52947;DHT22;68773;40.400;17.260;2023-04-25T06:53:18;16.60;81.80
52947;DHT22;68773;40.400;17.260;2023-04-25T06:55:45;16.20;80.90
52947;DHT22;68773;40.400;17.260;2023-04-25T06:58:10;16.80;80.30
52947;DHT22;68773;40.400;17.260;2023-04-25T07:00:36;16.90;79.20
52947;DHT22;68773;40.400;17.260;2023-04-25T07:03:02;17.20;78.30
52947;DHT22;68773;40.400;17.260;2023-04-25T07:05:27;17.40;76.70
52947;DHT22;68773;40.400;17.260;2023-04-25T07:07:53;17.20;76.20
52947;DHT22;68773;40.400;17.260;2023-04-25T07:10:19;17.40;74.10
52947;DHT22;68773;40.400;17.260;2023-04-25T07:12:46;17.40;72.90
52947;DHT22;68773;40.400;17.260;2023-04-25T07:15:12;17.30;73.40
52947;DHT22;68773;40.400;17.260;2023-04-25T07:17:38;17.00;73.60
52947;DHT22;68773;40.400;17.260;2023-04-25T07:20:04;17.00;74.20
52947;DHT22;68773;40.400;17.260;2023-04-25T07:22:32;17.10;75.10
52947;DHT22;68773;40.400;17.260;2023-04-25T07:24:58;16.90;76.20
52947;DHT22;68773;40.400;17.260;2023-04-25T07:27:24;17.10;76.50
52947;DHT22;68773;40.400;17.260;2023-04-25T07:29:50;17.10;76.70
52947;DHT22;68773;40.400;17.260;2023-04-25T07:32:15;17.10;77.40
52947;DHT22;68773;40.400;17.260;2023-04-25T07:34:41;17.00;77.50
52947;DHT22;68773;40.400;17.260;2023-04-25T07:37:07;17.10;78.20
52947;DHT22;68773;40.400;17.260;2023-04-25T07:39:33;17.00;79.00
52947;DHT22;68773;40.400;17.260;2023-04-25T07:41:58;17.10;79.40
52947;DHT22;68773;40.400;17.260;2023-04-25T07:44:24;17.10;80.00
52947;DHT22;68773;40.400;17.260;2023-04-25T07:46:51;17.00;79.00
52947;DHT22;68773;40.400;17.260;2023-04-25T07:49:17;17.10;79.40
52947;DHT22;68773;40.400;17.260;2023-04-25T07:51:42;17.10;79.20
52947;DHT22;68773;40.400;17.260;2023-04-25T07:54:15;17.10;80.00
52947;DHT22;68773;40.400;17.260;2023-04-25T07:56:43;17.00;78.80
52947;DHT22;68773;40.400;17.260;2023-04-25T07:59:09;17.10;76.50
52947;DHT22;68773;40.400;17.260;2023-04-25T08:01:34;17.10;74.30
52947;DHT22;68773;40.400;17.260;2023-04-25T08:04:00;17.40;74.00
52947;DHT22;68773;40.400;17.260;2023-04-25T08:06:26;17.40;72.70
52947;DHT22;68773;40.400;17.260;2023-04-25T08:08:52;17.50;70.60
52947;DHT22;68773;40.400;17.260;2023-04-25T08:11:18;17.40;69.80
52947;DHT22;68773;40.400;17.260;2023-04-25T08:13:44;17.50;69.60
52947;DHT22;68773;40.400;17.260;2023-04-25T08:16:09;17.50;68.60
52947;DHT22;68773;40.400;17.260;2023-04-25T08:18:35;17.70;68.10
52947;DHT22;68773;40.400;17.260;2023-04-25T08:21:01;17.50;67.70
52947;DHT22;68773;40.400;17.260;2023-04-25T08:23:26;17.70;67.90
52947;DHT22;68773;40.400;17.260;2023-04-25T08:25:53;18.00;67.70
52947;DHT22;68773;40.400;17.260;2023-04-25T08:28:19;18.00;66.50
52947;DHT22;68773;40.400;17.260;2023-04-25T08:30:44;18.30;67.60
52947;DHT22;68773;40.400;17.260;2023-04-25T08:33:10;18.30;66.30
52947;DHT22;68773;40.400;17.260;2023-04-25T08:35:36;18.60;66.00
52947;DHT22;68773;40.400;17.260;2023-04-25T08:38:02;18.60;65.80
52947;DHT22;68773;40.400;17.260;2023-04-25T08:40:28;18.60;66.50
52947;DHT22;68773;40.400;17.260;2023-04-25T08:42:57;18.60;73.80
52947;DHT22;68773;40.400;17.260;2023-04-25T08:45:25;18.30;72.90
52947;DHT22;68773;40.400;17.260;2023-04-25T08:47:52;18.30;74.10
52947;DHT22;68773;40.400;17.260;2023-04-25T08:50:19;18.20;73.20
52947;DHT22;68773;40.400;17.260;2023-04-25T08:52:47;18.00;78.50
52947;DHT22;68773;40.400;17.260;2023-04-25T08:55:13;18.00;79.50
52947;DHT22;68773;40.400;17.260;2023-04-25T08:57:42;18.20;79.10
52947;DHT22;68773;40.400;17.260;2023-04-25T09:00:11;18.20;79.20
52947;DHT22;68773;40.400;17.260;2023-04-25T09:02:39;18.20;78.80
52947;DHT22;68773;40.400;17.260;2023-04-25T09:05:05;18.10;77.60
52947;DHT22;68773;40.400;17.260;2023-04-25T09:07:32;18.00;78.50
52947;DHT22;68773;40.400;17.260;2023-04-25T09:09:58;18.00;77.90
52947;DHT22;68773;40.400;17.260;2023-04-25T09:12:29;18.00;78.00
52947;DHT22;68773;40.400;17.260;2023-04-25T09:15:12;17.90;78.30
52947;DHT22;68773;40.400;17.260;2023-04-25T09:17:41;18.10;77.90
52947;DHT22;68773;40.400;17.260;2023-04-25T09:20:12;18.40;76.70
52947;DHT22;68773;40.400;17.260;2023-04-25T09:22:38;18.50;75.20
52947;DHT22;68773;40.400;17.260;2023-04-25T09:25:13;18.90;72.10
52947;DHT22;68773;40.400;17.260;2023-04-25T09:27:53;18.80;67.80
52947;DHT22;68773;40.400;17.260;2023-04-25T09:30:29;18.90;67.00
52947;DHT22;68773;40.400;17.260;2023-04-25T09:33:09;19.10;66.70
52947;DHT22;68773;40.400;17.260;2023-04-25T09:35:39;19.00;67.40
52947;DHT22;68773;40.400;17.260;2023-04-25T09:40:43;19.00;69.10
52947;DHT22;68773;40.400;17.260;2023-04-25T09:43:21;18.80;70.20
52947;DHT22;68773;40.400;17.260;2023-04-25T09:45:48;18.80;71.00
52947;DHT22;68773;40.400;17.260;2023-04-25T09:48:19;18.80;71.90
52947;DHT22;68773;40.400;17.260;2023-04-25T09:53:43;19.50;72.20
52947;DHT22;68773;40.400;17.260;2023-04-25T09:56:16;19.50;70.90
52947;DHT22;68773;40.400;17.260;2023-04-25T09:58:42;19.30;70.20
52947;DHT22;68773;40.400;17.260;2023-04-25T10:01:11;19.00;70.10
52947;DHT22;68773;40.400;17.260;2023-04-25T10:03:39;19.20;70.30
52947;DHT22;68773;40.400;17.260;2023-04-25T10:06:17;19.40;69.00
52947;DHT22;68773;40.400;17.260;2023-04-25T10:08:44;19.00;72.70
52947;DHT22;68773;40.400;17.260;2023-04-25T10:11:10;19.40;77.80
52947;DHT22;68773;40.400;17.260;2023-04-25T10:13:40;19.60;72.10
52947;DHT22;68773;40.400;17.260;2023-04-25T10:16:06;19.50;69.70
52947;DHT22;68773;40.400;17.260;2023-04-25T10:18:32;19.30;67.70
52947;DHT22;68773;40.400;17.260;2023-04-25T10:21:01;19.60;68.20
52947;DHT22;68773;40.400;17.260;2023-04-25T10:23:27;19.50;68.80
52947;DHT22;68773;40.400;17.260;2023-04-25T10:25:55;19.60;70.30
52947;DHT22;68773;40.400;17.260;2023-04-25T10:28:21;19.60;73.80
52947;DHT22;68773;40.400;17.260;2023-04-25T10:31:04;20.00;75.00
52947;DHT22;68773;40.400;17.260;2023-04-25T10:33:35;19.70;76.20
52947;DHT22;68773;40.400;17.260;2023-04-25T10:36:21;19.50;76.70
52947;DHT22;68773;40.400;17.260;2023-04-25T10:38:49;19.30;76.80
52947;DHT22;68773;40.400;17.260;2023-04-25T10:41:19;19.30;77.00
52947;DHT22;68773;40.400;17.260;2023-04-25T10:43:49;19.40;76.90
52947;DHT22;68773;40.400;17.260;2023-04-25T10:46:27;19.50;76.50
52947;DHT22;68773;40.400;17.260;2023-04-25T10:48:55;19.50;76.60
52947;DHT22;68773;40.400;17.260;2023-04-25T10:54:00;19.70;77.90
52947;DHT22;68773;40.400;17.260;2023-04-25T10:56:30;19.50;77.90
52947;DHT22;68773;40.400;17.260;2023-04-25T10:59:15;19.60;77.40
52947;DHT22;68773;40.400;17.260;2023-04-25T11:01:42;19.60;77.80
52947;DHT22;68773;40.400;17.260;2023-04-25T11:04:28;19.70;76.70
52947;DHT22;68773;40.400;17.260;2023-04-25T11:09:34;19.30;78.40
52947;DHT22;68773;40.400;17.260;2023-04-25T11:12:00;19.00;79.70
52947;DHT22;68773;40.400;17.260;2023-04-25T11:14:26;19.50;80.40
52947;DHT22;68773;40.400;17.260;2023-04-25T11:16:56;20.00;79.70
52947;DHT22;68773;40.400;17.260;2023-04-25T11:19:26;20.60;78.60
52947;DHT22;68773;40.400;17.260;2023-04-25T11:21:58;20.70;76.80
52947;DHT22;68773;40.400;17.260;2023-04-25T11:24:32;20.80;71.80
52947;DHT22;68773;40.400;17.260;2023-04-25T11:27:01;21.30;68.40
52947;DHT22;68773;40.400;17.260;2023-04-25T11:29:32;21.50;68.20
52947;DHT22;68773;40.400;17.260;2023-04-25T11:31:59;21.70;66.90
52947;DHT22;68773;40.400;17.260;2023-04-25T11:34:27;21.80;73.90
52947;DHT22;68773;40.400;17.260;2023-04-25T11:36:53;21.70;73.60
52947;DHT22;68773;40.400;17.260;2023-04-25T11:39:19;21.70;73.10
52947;DHT22;68773;40.400;17.260;2023-04-25T11:41:46;21.30;74.60
52947;DHT22;68773;40.400;17.260;2023-04-25T11:44:15;21.40;75.20
52947;DHT22;68773;40.400;17.260;2023-04-25T11:46:42;21.20;74.70
52947;DHT22;68773;40.400;17.260;2023-04-25T11:49:08;21.10;74.20
52947;DHT22;68773;40.400;17.260;2023-04-25T11:51:40;20.90;75.60
52947;DHT22;68773;40.400;17.260;2023-04-25T11:54:07;21.50;73.90
52947;DHT22;68773;40.400;17.260;2023-04-25T11:56:33;21.80;71.70
52947;DHT22;68773;40.400;17.260;2023-04-25T11:59:05;21.50;71.70
52947;DHT22;68773;40.400;17.260;2023-04-25T12:01:33;21.90;71.60
52947;DHT22;68773;40.400;17.260;2023-04-25T12:04:23;22.00;69.80
52947;DHT22;68773;40.400;17.260;2023-04-25T12:06:52;22.30;69.20
52947;DHT22;68773;40.400;17.260;2023-04-25T12:09:21;22.20;70.30
52947;DHT22;68773;40.400;17.260;2023-04-25T12:11:49;21.80;72.20
52947;DHT22;68773;40.400;17.260;2023-04-25T12:14:31;21.60;72.80
52947;DHT22;68773;40.400;17.260;2023-04-25T12:16:59;21.70;72.90
52947;DHT22;68773;40.400;17.260;2023-04-25T12:19:25;22.30;68.20
52947;DHT22;68773;40.400;17.260;2023-04-25T12:21:52;21.90;65.70
52947;DHT22;68773;40.400;17.260;2023-04-25T12:24:25;22.00;66.00
52947;DHT22;68773;40.400;17.260;2023-04-25T12:26:59;22.00;66.40
52947;DHT22;68773;40.400;17.260;2023-04-25T12:29:27;22.60;65.00
52947;DHT22;68773;40.400;17.260;2023-04-25T12:31:53;22.70;66.30
52947;DHT22;68773;40.400;17.260;2023-04-25T12:34:20;22.00;67.60
52947;DHT22;68773;40.400;17.260;2023-04-25T12:36:46;22.40;68.90
52947;DHT22;68773;40.400;17.260;2023-04-25T12:39:20;22.90;67.50
52947;DHT22;68773;40.400;17.260;2023-04-25T12:41:47;23.20;66.70
52947;DHT22;68773;40.400;17.260;2023-04-25T12:44:14;23.30;64.70
52947;DHT22;68773;40.400;17.260;2023-04-25T12:46:40;23.30;65.10
52947;DHT22;68773;40.400;17.260;2023-04-25T12:49:09;23.00;66.90
52947;DHT22;68773;40.400;17.260;2023-04-25T12:51:35;22.40;67.50
52947;DHT22;68773;40.400;17.260;2023-04-25T12:54:02;22.20;68.60
52947;DHT22;68773;40.400;17.260;2023-04-25T12:56:28;22.80;69.10
52947;DHT22;68773;40.400;17.260;2023-04-25T12:58:54;23.50;69.60
52947;DHT22;68773;40.400;17.260;2023-04-25T13:01:21;23.80;69.80
52947;DHT22;68773;40.400;17.260;2023-04-25T13:03:47;23.40;69.20
52947;DHT22;68773;40.400;17.260;2023-04-25T13:06:14;22.10;72.00
52947;DHT22;68773;40.400;17.260;2023-04-25T13:08:40;22.20;73.30
52947;DHT22;68773;40.400;17.260;2023-04-25T13:11:07;21.90;73.70
52947;DHT22;68773;40.400;17.260;2023-04-25T13:13:33;21.60;74.20
52947;DHT22;68773;40.400;17.260;2023-04-25T13:16:03;21.70;74.90
52947;DHT22;68773;40.400;17.260;2023-04-25T13:18:30;21.60;74.90
52947;DHT22;68773;40.400;17.260;2023-04-25T13:20:57;21.50;74.50
52947;DHT22;68773;40.400;17.260;2023-04-25T13:23:25;21.20;75.40
52947;DHT22;68773;40.400;17.260;2023-04-25T13:25:52;21.40;76.30
52947;DHT22;68773;40.400;17.260;2023-04-25T13:28:17;21.20;75.60
52947;DHT22;68773;40.400;17.260;2023-04-25T13:30:43;21.40;75.90
52947;DHT22;68773;40.400;17.260;2023-04-25T13:33:09;21.30;75.90
52947;DHT22;68773;40.400;17.260;2023-04-25T13:35:36;21.60;76.30
52947;DHT22;68773;40.400;17.260;2023-04-25T13:38:02;21.70;76.70
52947;DHT22;68773;40.400;17.260;2023-04-25T13:40:29;21.30;77.30
52947;DHT22;68773;40.400;17.260;2023-04-25T13:42:55;21.40;77.30
52947;DHT22;68773;40.400;17.260;2023-04-25T13:45:21;21.50;77.60
52947;DHT22;68773;40.400;17.260;2023-04-25T13:47:47;21.50;77.10
52947;DHT22;68773;40.400;17.260;2023-04-25T13:50:13;21.60;78.10
52947;DHT22;68773;40.400;17.260;2023-04-25T13:52:39;21.80;76.00
52947;DHT22;68773;40.400;17.260;2023-04-25T13:55:06;21.80;74.80
52947;DHT22;68773;40.400;17.260;2023-04-25T13:57:33;21.70;74.40
52947;DHT22;68773;40.400;17.260;2023-04-25T13:59:59;21.70;74.40
52947;DHT22;68773;40.400;17.260;2023-04-25T14:02:30;21.40;75.30
52947;DHT22;68773;40.400;17.260;2023-04-25T14:04:55;21.40;74.50
52947;DHT22;68773;40.400;17.260;2023-04-25T14:07:21;21.50;75.90
52947;DHT22;68773;40.400;17.260;2023-04-25T14:09:47;21.80;74.70
52947;DHT22;68773;40.400;17.260;2023-04-25T14:12:13;21.80;74.30
52947;DHT22;68773;40.400;17.260;2023-04-25T14:14:38;21.90;74.70
52947;DHT22;68773;40.400;17.260;2023-04-25T14:17:04;21.80;74.30
52947;DHT22;68773;40.400;17.260;2023-04-25T14:19:30;21.80;74.30
52947;DHT22;68773;40.400;17.260;2023-04-25T14:21:56;21.60;74.10
52947;DHT22;68773;40.400;17.260;2023-04-25T14:24:21;21.40;75.10
52947;DHT22;68773;40.400;17.260;2023-04-25T14:26:47;21.50;75.70
52947;DHT22;68773;40.400;17.260;2023-04-25T14:29:13;21.40;75.20
52947;DHT22;68773;40.400;17.260;2023-04-25T14:31:39;21.30;76.50
52947;DHT22;68773;40.400;17.260;2023-04-25T14:34:05;21.40;75.20
52947;DHT22;68773;40.400;17.260;2023-04-25T14:36:31;21.60;75.40
52947;DHT22;68773;40.400;17.260;2023-04-25T14:38:58;21.50;76.10
52947;DHT22;68773;40.400;17.260;2023-04-25T14:41:25;21.70;76.80
52947;DHT22;68773;40.400;17.260;2023-04-25T14:43:51;21.60;77.10
52947;DHT22;68773;40.400;17.260;2023-04-25T14:46:19;21.10;79.00
52947;DHT22;68773;40.400;17.260;2023-04-25T14:48:45;20.90;78.70
52947;DHT22;68773;40.400;17.260;2023-04-25T14:51:11;21.00;78.30
52947;DHT22;68773;40.400;17.260;2023-04-25T14:53:37;20.90;78.20
52947;DHT22;68773;40.400;17.260;2023-04-25T14:56:03;20.80;78.80
52947;DHT22;68773;40.400;17.260;2023-04-25T14:58:28;20.60;79.00
52947;DHT22;68773;40.400;17.260;2023-04-25T15:00:54;20.60;79.60
52947;DHT22;68773;40.400;17.260;2023-04-25T15:03:20;20.70;79.80
52947;DHT22;68773;40.400;17.260;2023-04-25T15:05:46;20.60;79.40
52947;DHT22;68773;40.400;17.260;2023-04-25T15:08:12;20.80;79.80
52947;DHT22;68773;40.400;17.260;2023-04-25T15:10:37;20.70;80.70
52947;DHT22;68773;40.400;17.260;2023-04-25T15:13:04;20.90;81.40
52947;DHT22;68773;40.400;17.260;2023-04-25T15:15:29;21.10;80.70
52947;DHT22;68773;40.400;17.260;2023-04-25T15:17:56;21.00;77.70
52947;DHT22;68773;40.400;17.260;2023-04-25T15:20:22;20.60;77.00
52947;DHT22;68773;40.400;17.260;2023-04-25T15:22:48;20.40;77.70
52947;DHT22;68773;40.400;17.260;2023-04-25T15:25:15;19.90;79.50